Airfield :







YOU CAN JOIN US ON...

 
LOGIN :

Register | Disclaimer

   EN    FR    IT 

 









Legend :    VFR   Marginal VFR   IFR   Intensive IFR   Very Intensive IFR
Visi :
Ceiling :
>= 8 km
>= 3000ft
5 to 8 km
1000 to 3000 ft
1500m to 5 km
500 to 1000 ft
800 to 1500m
200 to 500 ft
< 800m
< 200 ft
Symbols :   Thunderstorms  Fog  Heavy snow  Heavy precipitations  Wind > 20 kt






- Airport Elevation : 160 ft
- IATA code : YYG


CYYG - Charlottetown

CURRENT METAR :
  • 141300Z 27008KT 15SM FEW012 BKN044 BKN180 BKN240 M04/M07 A3043 RMK CU1SC5AC1CI1 CU TR SLP310

EXPIRED METARs :
  • 141200Z 27007KT 15SM BKN044 BKN180 BKN240 M04/M07 A3041 RMK SC5AC1CI1 SLP302

TAF TAF CYYG
Valid from the 14 at 12:00 until the 15 at 00:00 UTC


141138Z 1412/1424 28008KT P6SM BKN040 OVC140
TEMPO 1412/1424 5SM -SHSN
BECMG 1415/1417 22008KT RMK NXT FCST BY 141800Z



MET'MAP, your aeronautical weather chart ! - Copyright ORBIFLY December 2007 - Disclaimer

ORBIFLY MET'MAP TEAM :

Programming & Development : Alexandra Zaïnal
Concept & Development : Baudouin d'Aumeries
Co-Development & Prog : Marc-Olivier Méhu
Technical & hardware support : Manuel Goepfert

Contact : metmap@orbifly.com




SOURCES & CREDITS :

   NOAA